sensor_id;sensor_type;location;lat;lon;timestamp;P1;durP1;ratioP1;P2;durP2;ratioP2
3066;SDS011;1544;48.834;9.194;2022-10-16T00:01:45;1.30;;;0.90;;
3066;SDS011;1544;48.834;9.194;2022-10-16T00:04:20;1.00;;;1.00;;
3066;SDS011;1544;48.834;9.194;2022-10-16T00:06:55;1.40;;;1.30;;
3066;SDS011;1544;48.834;9.194;2022-10-16T00:09:30;1.33;;;1.10;;
3066;SDS011;1544;48.834;9.194;2022-10-16T00:12:05;0.97;;;0.97;;
3066;SDS011;1544;48.834;9.194;2022-10-16T00:14:41;1.17;;;1.00;;
3066;SDS011;1544;48.834;9.194;2022-10-16T00:17:18;1.00;;;1.00;;
3066;SDS011;1544;48.834;9.194;2022-10-16T00:19:53;1.10;;;1.00;;
3066;SDS011;1544;48.834;9.194;2022-10-16T00:22:28;1.13;;;0.80;;
3066;SDS011;1544;48.834;9.194;2022-10-16T00:25:03;1.17;;;0.93;;
3066;SDS011;1544;48.834;9.194;2022-10-16T00:27:38;1.00;;;0.90;;
3066;SDS011;1544;48.834;9.194;2022-10-16T00:30:13;1.10;;;1.00;;
3066;SDS011;1544;48.834;9.194;2022-10-16T00:32:48;1.10;;;0.90;;
3066;SDS011;1544;48.834;9.194;2022-10-16T00:35:23;1.53;;;1.00;;
3066;SDS011;1544;48.834;9.194;2022-10-16T00:37:58;1.53;;;1.00;;
3066;SDS011;1544;48.834;9.194;2022-10-16T00:40:33;1.97;;;1.03;;
3066;SDS011;1544;48.834;9.194;2022-10-16T00:43:55;1.10;;;1.10;;
3066;SDS011;1544;48.834;9.194;2022-10-16T00:46:34;0.90;;;0.90;;
3066;SDS011;1544;48.834;9.194;2022-10-16T00:49:17;1.30;;;1.20;;
3066;SDS011;1544;48.834;9.194;2022-10-16T00:51:53;1.40;;;1.10;;
3066;SDS011;1544;48.834;9.194;2022-10-16T00:54:31;0.80;;;0.80;;
3066;SDS011;1544;48.834;9.194;2022-10-16T00:57:07;1.10;;;1.00;;
3066;SDS011;1544;48.834;9.194;2022-10-16T00:59:42;1.20;;;1.10;;
3066;SDS011;1544;48.834;9.194;2022-10-16T01:02:17;1.40;;;1.13;;
3066;SDS011;1544;48.834;9.194;2022-10-16T01:04:52;1.23;;;1.00;;
3066;SDS011;1544;48.834;9.194;2022-10-16T01:07:41;1.10;;;1.10;;
3066;SDS011;1544;48.834;9.194;2022-10-16T01:10:57;1.03;;;1.00;;
3066;SDS011;1544;48.834;9.194;2022-10-16T01:13:51;1.30;;;1.20;;
3066;SDS011;1544;48.834;9.194;2022-10-16T01:22:26;1.10;;;1.00;;
3066;SDS011;1544;48.834;9.194;2022-10-16T01:25:52;1.10;;;1.00;;
3066;SDS011;1544;48.834;9.194;2022-10-16T01:28:42;1.07;;;0.97;;
3066;SDS011;1544;48.834;9.194;2022-10-16T01:31:31;1.10;;;1.00;;
3066;SDS011;1544;48.834;9.194;2022-10-16T01:34:16;1.17;;;1.07;;
3066;SDS011;1544;48.834;9.194;2022-10-16T01:36:56;1.30;;;1.20;;
3066;SDS011;1544;48.834;9.194;2022-10-16T01:39:40;0.90;;;0.90;;
3066;SDS011;1544;48.834;9.194;2022-10-16T01:42:21;1.00;;;1.00;;
3066;SDS011;1544;48.834;9.194;2022-10-16T01:44:59;1.23;;;1.10;;
3066;SDS011;1544;48.834;9.194;2022-10-16T01:47:35;1.00;;;1.00;;
3066;SDS011;1544;48.834;9.194;2022-10-16T01:50:12;1.33;;;1.10;;
3066;SDS011;1544;48.834;9.194;2022-10-16T01:52:51;1.13;;;1.03;;
3066;SDS011;1544;48.834;9.194;2022-10-16T01:55:28;1.47;;;1.37;;
3066;SDS011;1544;48.834;9.194;2022-10-16T01:58:09;1.30;;;1.20;;
3066;SDS011;1544;48.834;9.194;2022-10-16T02:00:46;1.20;;;1.10;;
3066;SDS011;1544;48.834;9.194;2022-10-16T02:03:22;0.97;;;0.97;;
3066;SDS011;1544;48.834;9.194;2022-10-16T02:05:57;1.00;;;1.00;;
3066;SDS011;1544;48.834;9.194;2022-10-16T02:08:33;1.07;;;0.97;;
3066;SDS011;1544;48.834;9.194;2022-10-16T02:11:10;1.43;;;1.33;;
3066;SDS011;1544;48.834;9.194;2022-10-16T02:13:55;2.10;;;1.20;;
3066;SDS011;1544;48.834;9.194;2022-10-16T02:16:38;1.20;;;1.10;;
3066;SDS011;1544;48.834;9.194;2022-10-16T02:19:18;2.80;;;1.20;;
3066;SDS011;1544;48.834;9.194;2022-10-16T02:22:00;1.40;;;1.30;;
3066;SDS011;1544;48.834;9.194;2022-10-16T02:24:43;1.93;;;1.40;;
3066;SDS011;1544;48.834;9.194;2022-10-16T02:33:17;1.30;;;1.20;;
3066;SDS011;1544;48.834;9.194;2022-10-16T02:35:55;1.23;;;1.20;;
3066;SDS011;1544;48.834;9.194;2022-10-16T02:38:32;1.20;;;1.10;;
3066;SDS011;1544;48.834;9.194;2022-10-16T02:41:08;1.40;;;1.30;;
3066;SDS011;1544;48.834;9.194;2022-10-16T02:43:43;1.63;;;1.30;;
3066;SDS011;1544;48.834;9.194;2022-10-16T02:46:18;1.40;;;1.30;;
3066;SDS011;1544;48.834;9.194;2022-10-16T02:48:53;1.07;;;1.07;;
3066;SDS011;1544;48.834;9.194;2022-10-16T02:51:28;1.10;;;1.00;;
3066;SDS011;1544;48.834;9.194;2022-10-16T02:54:03;1.97;;;1.10;;
3066;SDS011;1544;48.834;9.194;2022-10-16T02:56:38;1.60;;;1.27;;
3066;SDS011;1544;48.834;9.194;2022-10-16T02:59:13;1.30;;;1.20;;
3066;SDS011;1544;48.834;9.194;2022-10-16T03:01:48;1.13;;;1.10;;
3066;SDS011;1544;48.834;9.194;2022-10-16T03:04:23;1.10;;;1.03;;
3066;SDS011;1544;48.834;9.194;2022-10-16T03:06:58;1.20;;;1.10;;
3066;SDS011;1544;48.834;9.194;2022-10-16T03:09:33;1.30;;;1.20;;
3066;SDS011;1544;48.834;9.194;2022-10-16T03:12:08;1.20;;;1.10;;
3066;SDS011;1544;48.834;9.194;2022-10-16T03:14:43;1.50;;;1.10;;
3066;SDS011;1544;48.834;9.194;2022-10-16T03:17:18;0.93;;;0.93;;
3066;SDS011;1544;48.834;9.194;2022-10-16T03:19:53;1.67;;;1.30;;
3066;SDS011;1544;48.834;9.194;2022-10-16T03:22:28;1.03;;;1.03;;
3066;SDS011;1544;48.834;9.194;2022-10-16T03:25:03;1.20;;;1.10;;
3066;SDS011;1544;48.834;9.194;2022-10-16T03:27:39;1.63;;;1.23;;
3066;SDS011;1544;48.834;9.194;2022-10-16T03:30:14;1.30;;;1.20;;
3066;SDS011;1544;48.834;9.194;2022-10-16T03:32:49;1.40;;;1.30;;
3066;SDS011;1544;48.834;9.194;2022-10-16T03:35:28;1.30;;;1.20;;
3066;SDS011;1544;48.834;9.194;2022-10-16T03:38:04;1.23;;;1.13;;
3066;SDS011;1544;48.834;9.194;2022-10-16T03:40:39;1.30;;;1.20;;
3066;SDS011;1544;48.834;9.194;2022-10-16T03:43:14;1.20;;;1.10;;
3066;SDS011;1544;48.834;9.194;2022-10-16T03:45:53;1.23;;;1.13;;
3066;SDS011;1544;48.834;9.194;2022-10-16T03:48:28;1.43;;;1.30;;
3066;SDS011;1544;48.834;9.194;2022-10-16T03:51:03;1.47;;;1.20;;
3066;SDS011;1544;48.834;9.194;2022-10-16T03:53:39;2.10;;;1.20;;
3066;SDS011;1544;48.834;9.194;2022-10-16T03:56:14;2.13;;;1.30;;
3066;SDS011;1544;48.834;9.194;2022-10-16T03:58:49;1.60;;;1.50;;
3066;SDS011;1544;48.834;9.194;2022-10-16T04:01:23;1.50;;;1.30;;
3066;SDS011;1544;48.834;9.194;2022-10-16T04:03:59;1.33;;;1.20;;
3066;SDS011;1544;48.834;9.194;2022-10-16T04:06:34;1.30;;;1.20;;
3066;SDS011;1544;48.834;9.194;2022-10-16T04:09:08;1.50;;;1.40;;
3066;SDS011;1544;48.834;9.194;2022-10-16T04:11:43;1.57;;;1.40;;
3066;SDS011;1544;48.834;9.194;2022-10-16T04:14:19;1.30;;;1.20;;
3066;SDS011;1544;48.834;9.194;2022-10-16T04:16:54;1.93;;;1.73;;
3066;SDS011;1544;48.834;9.194;2022-10-16T04:19:29;1.33;;;1.23;;
3066;SDS011;1544;48.834;9.194;2022-10-16T04:22:03;1.40;;;1.30;;
3066;SDS011;1544;48.834;9.194;2022-10-16T04:24:38;1.30;;;1.20;;
3066;SDS011;1544;48.834;9.194;2022-10-16T04:27:14;2.30;;;1.20;;
3066;SDS011;1544;48.834;9.194;2022-10-16T04:29:49;2.10;;;1.60;;
3066;SDS011;1544;48.834;9.194;2022-10-16T04:32:24;1.53;;;1.40;;
3066;SDS011;1544;48.834;9.194;2022-10-16T04:34:59;1.83;;;1.60;;
3066;SDS011;1544;48.834;9.194;2022-10-16T04:37:34;1.37;;;1.30;;
3066;SDS011;1544;48.834;9.194;2022-10-16T04:40:10;1.50;;;1.40;;
3066;SDS011;1544;48.834;9.194;2022-10-16T04:42:45;1.40;;;1.30;;
3066;SDS011;1544;48.834;9.194;2022-10-16T04:45:20;1.83;;;1.60;;
3066;SDS011;1544;48.834;9.194;2022-10-16T04:47:56;2.50;;;1.40;;
3066;SDS011;1544;48.834;9.194;2022-10-16T04:50:32;1.40;;;1.30;;
3066;SDS011;1544;48.834;9.194;2022-10-16T04:53:13;1.30;;;1.23;;
3066;SDS011;1544;48.834;9.194;2022-10-16T04:55:49;1.30;;;1.20;;
3066;SDS011;1544;48.834;9.194;2022-10-16T04:58:25;1.63;;;1.40;;
3066;SDS011;1544;48.834;9.194;2022-10-16T05:01:00;1.60;;;1.50;;
3066;SDS011;1544;48.834;9.194;2022-10-16T05:03:35;1.60;;;1.33;;
3066;SDS011;1544;48.834;9.194;2022-10-16T05:06:10;1.40;;;1.30;;
3066;SDS011;1544;48.834;9.194;2022-10-16T05:08:44;1.30;;;1.20;;
3066;SDS011;1544;48.834;9.194;2022-10-16T05:11:19;2.03;;;1.37;;
3066;SDS011;1544;48.834;9.194;2022-10-16T05:13:54;1.13;;;1.03;;
3066;SDS011;1544;48.834;9.194;2022-10-16T05:16:29;1.50;;;1.40;;
3066;SDS011;1544;48.834;9.194;2022-10-16T05:19:05;1.73;;;1.37;;
3066;SDS011;1544;48.834;9.194;2022-10-16T05:22:00;1.03;;;1.03;;
3066;SDS011;1544;48.834;9.194;2022-10-16T05:24:35;1.53;;;1.43;;
3066;SDS011;1544;48.834;9.194;2022-10-16T05:27:10;1.43;;;1.33;;
3066;SDS011;1544;48.834;9.194;2022-10-16T05:29:52;1.30;;;1.13;;
3066;SDS011;1544;48.834;9.194;2022-10-16T05:32:27;5.60;;;1.70;;
3066;SDS011;1544;48.834;9.194;2022-10-16T05:35:02;1.57;;;1.27;;
3066;SDS011;1544;48.834;9.194;2022-10-16T05:37:43;1.73;;;1.30;;
3066;SDS011;1544;48.834;9.194;2022-10-16T05:40:18;1.50;;;1.40;;
3066;SDS011;1544;48.834;9.194;2022-10-16T05:42:56;2.27;;;1.20;;
3066;SDS011;1544;48.834;9.194;2022-10-16T05:45:31;1.40;;;1.30;;
3066;SDS011;1544;48.834;9.194;2022-10-16T05:48:06;1.50;;;1.40;;
3066;SDS011;1544;48.834;9.194;2022-10-16T05:50:41;1.40;;;1.30;;
3066;SDS011;1544;48.834;9.194;2022-10-16T05:53:16;1.20;;;1.10;;
3066;SDS011;1544;48.834;9.194;2022-10-16T05:55:52;1.43;;;1.27;;
3066;SDS011;1544;48.834;9.194;2022-10-16T05:58:28;1.33;;;1.23;;
3066;SDS011;1544;48.834;9.194;2022-10-16T06:01:09;4.17;;;1.43;;
3066;SDS011;1544;48.834;9.194;2022-10-16T06:03:53;1.43;;;1.33;;
3066;SDS011;1544;48.834;9.194;2022-10-16T06:06:28;1.37;;;1.27;;
3066;SDS011;1544;48.834;9.194;2022-10-16T06:09:04;1.50;;;1.30;;
3066;SDS011;1544;48.834;9.194;2022-10-16T06:11:39;1.50;;;1.37;;
3066;SDS011;1544;48.834;9.194;2022-10-16T06:14:14;2.57;;;1.27;;
3066;SDS011;1544;48.834;9.194;2022-10-16T06:16:49;1.63;;;1.53;;
3066;SDS011;1544;48.834;9.194;2022-10-16T06:19:24;1.60;;;1.50;;
3066;SDS011;1544;48.834;9.194;2022-10-16T06:21:59;1.80;;;1.60;;
3066;SDS011;1544;48.834;9.194;2022-10-16T06:24:34;1.50;;;1.40;;
3066;SDS011;1544;48.834;9.194;2022-10-16T06:27:09;1.60;;;1.50;;
3066;SDS011;1544;48.834;9.194;2022-10-16T06:29:44;1.80;;;1.53;;
3066;SDS011;1544;48.834;9.194;2022-10-16T06:32:19;1.53;;;1.40;;
3066;SDS011;1544;48.834;9.194;2022-10-16T06:34:55;1.40;;;1.30;;
3066;SDS011;1544;48.834;9.194;2022-10-16T06:37:30;2.50;;;1.13;;
3066;SDS011;1544;48.834;9.194;2022-10-16T06:40:05;1.53;;;1.40;;
3066;SDS011;1544;48.834;9.194;2022-10-16T06:42:41;1.60;;;1.50;;
3066;SDS011;1544;48.834;9.194;2022-10-16T06:45:16;2.13;;;2.03;;
3066;SDS011;1544;48.834;9.194;2022-10-16T06:47:51;1.53;;;1.43;;
3066;SDS011;1544;48.834;9.194;2022-10-16T06:50:26;2.07;;;1.43;;
3066;SDS011;1544;48.834;9.194;2022-10-16T06:53:01;1.67;;;1.57;;
3066;SDS011;1544;48.834;9.194;2022-10-16T06:55:36;1.83;;;1.60;;
3066;SDS011;1544;48.834;9.194;2022-10-16T06:58:11;1.80;;;1.70;;
3066;SDS011;1544;48.834;9.194;2022-10-16T07:00:46;1.87;;;1.57;;
3066;SDS011;1544;48.834;9.194;2022-10-16T07:03:21;2.53;;;1.70;;
3066;SDS011;1544;48.834;9.194;2022-10-16T07:05:56;1.40;;;1.30;;
3066;SDS011;1544;48.834;9.194;2022-10-16T07:08:35;1.40;;;1.30;;
3066;SDS011;1544;48.834;9.194;2022-10-16T07:11:14;1.47;;;1.37;;
3066;SDS011;1544;48.834;9.194;2022-10-16T07:13:52;1.37;;;1.27;;
3066;SDS011;1544;48.834;9.194;2022-10-16T07:16:30;1.47;;;1.30;;
3066;SDS011;1544;48.834;9.194;2022-10-16T07:19:07;2.70;;;2.50;;
3066;SDS011;1544;48.834;9.194;2022-10-16T07:21:42;2.80;;;2.60;;
3066;SDS011;1544;48.834;9.194;2022-10-16T07:24:18;2.70;;;2.20;;
3066;SDS011;1544;48.834;9.194;2022-10-16T07:26:54;1.80;;;1.30;;
3066;SDS011;1544;48.834;9.194;2022-10-16T07:29:29;1.60;;;1.50;;
3066;SDS011;1544;48.834;9.194;2022-10-16T07:32:04;1.60;;;1.33;;
3066;SDS011;1544;48.834;9.194;2022-10-16T07:34:39;1.40;;;1.30;;
3066;SDS011;1544;48.834;9.194;2022-10-16T07:37:14;1.40;;;1.30;;
3066;SDS011;1544;48.834;9.194;2022-10-16T07:39:49;1.50;;;1.40;;
3066;SDS011;1544;48.834;9.194;2022-10-16T07:42:24;1.70;;;1.60;;
3066;SDS011;1544;48.834;9.194;2022-10-16T07:44:59;1.43;;;1.33;;
3066;SDS011;1544;48.834;9.194;2022-10-16T07:47:34;1.50;;;1.40;;
3066;SDS011;1544;48.834;9.194;2022-10-16T07:50:09;1.47;;;1.37;;
3066;SDS011;1544;48.834;9.194;2022-10-16T07:52:44;1.43;;;1.33;;
3066;SDS011;1544;48.834;9.194;2022-10-16T07:55:19;1.80;;;1.30;;
3066;SDS011;1544;48.834;9.194;2022-10-16T07:57:54;1.50;;;1.40;;
3066;SDS011;1544;48.834;9.194;2022-10-16T08:00:29;1.77;;;1.40;;
3066;SDS011;1544;48.834;9.194;2022-10-16T08:03:05;5.57;;;1.67;;
3066;SDS011;1544;48.834;9.194;2022-10-16T08:05:40;1.50;;;1.40;;
3066;SDS011;1544;48.834;9.194;2022-10-16T08:08:16;1.63;;;1.53;;
3066;SDS011;1544;48.834;9.194;2022-10-16T08:10:53;1.40;;;1.30;;
3066;SDS011;1544;48.834;9.194;2022-10-16T08:13:28;1.73;;;1.20;;
3066;SDS011;1544;48.834;9.194;2022-10-16T08:16:04;1.97;;;1.87;;
3066;SDS011;1544;48.834;9.194;2022-10-16T08:18:42;1.50;;;1.40;;
3066;SDS011;1544;48.834;9.194;2022-10-16T08:21:18;2.13;;;1.47;;
3066;SDS011;1544;48.834;9.194;2022-10-16T08:23:57;1.40;;;1.30;;
3066;SDS011;1544;48.834;9.194;2022-10-16T08:26:33;1.60;;;1.50;;
3066;SDS011;1544;48.834;9.194;2022-10-16T08:29:08;2.03;;;1.37;;
3066;SDS011;1544;48.834;9.194;2022-10-16T08:31:43;1.47;;;1.37;;
3066;SDS011;1544;48.834;9.194;2022-10-16T08:34:18;1.33;;;1.23;;
3066;SDS011;1544;48.834;9.194;2022-10-16T08:36:53;1.33;;;1.23;;
3066;SDS011;1544;48.834;9.194;2022-10-16T08:39:29;1.70;;;1.23;;
3066;SDS011;1544;48.834;9.194;2022-10-16T08:42:19;2.20;;;1.17;;
3066;SDS011;1544;48.834;9.194;2022-10-16T08:51:00;1.47;;;1.30;;
3066;SDS011;1544;48.834;9.194;2022-10-16T08:53:42;1.20;;;1.10;;
3066;SDS011;1544;48.834;9.194;2022-10-16T08:56:24;1.10;;;1.10;;
3066;SDS011;1544;48.834;9.194;2022-10-16T08:59:00;1.10;;;1.10;;
3066;SDS011;1544;48.834;9.194;2022-10-16T09:01:40;1.00;;;1.00;;
3066;SDS011;1544;48.834;9.194;2022-10-16T09:07:39;1.43;;;1.10;;
3066;SDS011;1544;48.834;9.194;2022-10-16T09:13:26;1.70;;;1.33;;
3066;SDS011;1544;48.834;9.194;2022-10-16T09:16:33;1.17;;;1.10;;
3066;SDS011;1544;48.834;9.194;2022-10-16T09:19:17;1.20;;;1.10;;
3066;SDS011;1544;48.834;9.194;2022-10-16T09:22:09;1.40;;;1.30;;
3066;SDS011;1544;48.834;9.194;2022-10-16T09:24:49;2.03;;;1.50;;
3066;SDS011;1544;48.834;9.194;2022-10-16T09:27:24;1.47;;;1.20;;
3066;SDS011;1544;48.834;9.194;2022-10-16T09:30:01;1.50;;;1.40;;
3066;SDS011;1544;48.834;9.194;2022-10-16T09:32:52;1.90;;;1.80;;
3066;SDS011;1544;48.834;9.194;2022-10-16T09:35:33;2.00;;;1.90;;
3066;SDS011;1544;48.834;9.194;2022-10-16T09:38:36;1.60;;;1.50;;
3066;SDS011;1544;48.834;9.194;2022-10-16T09:41:21;1.60;;;1.50;;
3066;SDS011;1544;48.834;9.194;2022-10-16T09:43:59;1.87;;;1.77;;
3066;SDS011;1544;48.834;9.194;2022-10-16T09:46:37;1.60;;;1.50;;
3066;SDS011;1544;48.834;9.194;2022-10-16T09:49:25;1.90;;;1.80;;
3066;SDS011;1544;48.834;9.194;2022-10-16T09:52:11;2.07;;;1.97;;
3066;SDS011;1544;48.834;9.194;2022-10-16T09:54:56;1.90;;;1.50;;
3066;SDS011;1544;48.834;9.194;2022-10-16T09:57:47;2.13;;;2.03;;
3066;SDS011;1544;48.834;9.194;2022-10-16T10:00:27;2.70;;;2.50;;
3066;SDS011;1544;48.834;9.194;2022-10-16T10:03:08;2.20;;;1.97;;
3066;SDS011;1544;48.834;9.194;2022-10-16T10:05:47;2.60;;;1.90;;
3066;SDS011;1544;48.834;9.194;2022-10-16T10:08:23;2.00;;;1.90;;
3066;SDS011;1544;48.834;9.194;2022-10-16T10:10:58;1.50;;;1.40;;
3066;SDS011;1544;48.834;9.194;2022-10-16T10:13:33;2.53;;;1.60;;
3066;SDS011;1544;48.834;9.194;2022-10-16T10:16:11;2.07;;;1.37;;
3066;SDS011;1544;48.834;9.194;2022-10-16T10:18:46;1.67;;;1.57;;
3066;SDS011;1544;48.834;9.194;2022-10-16T10:21:21;2.10;;;1.93;;
3066;SDS011;1544;48.834;9.194;2022-10-16T10:23:56;3.50;;;2.10;;
3066;SDS011;1544;48.834;9.194;2022-10-16T10:26:31;1.77;;;1.67;;
3066;SDS011;1544;48.834;9.194;2022-10-16T10:34:57;1.50;;;1.40;;
3066;SDS011;1544;48.834;9.194;2022-10-16T10:44:16;1.57;;;1.40;;
3066;SDS011;1544;48.834;9.194;2022-10-16T10:50:56;1.50;;;1.40;;
3066;SDS011;1544;48.834;9.194;2022-10-16T10:59:20;1.77;;;1.63;;
3066;SDS011;1544;48.834;9.194;2022-10-16T11:02:46;2.50;;;1.30;;
3066;SDS011;1544;48.834;9.194;2022-10-16T11:06:05;1.23;;;1.13;;
3066;SDS011;1544;48.834;9.194;2022-10-16T11:09:02;1.20;;;1.10;;
3066;SDS011;1544;48.834;9.194;2022-10-16T11:11:50;2.07;;;1.17;;
3066;SDS011;1544;48.834;9.194;2022-10-16T11:15:04;1.73;;;0.90;;
3066;SDS011;1544;48.834;9.194;2022-10-16T11:17:52;1.00;;;1.00;;
3066;SDS011;1544;48.834;9.194;2022-10-16T11:20:47;1.00;;;1.00;;
3066;SDS011;1544;48.834;9.194;2022-10-16T11:23:32;1.37;;;0.90;;
3066;SDS011;1544;48.834;9.194;2022-10-16T11:26:28;3.53;;;0.80;;
3066;SDS011;1544;48.834;9.194;2022-10-16T11:29:14;1.00;;;1.00;;
3066;SDS011;1544;48.834;9.194;2022-10-16T11:32:05;9.63;;;7.70;;
3066;SDS011;1544;48.834;9.194;2022-10-16T11:35:00;1.60;;;1.50;;
3066;SDS011;1544;48.834;9.194;2022-10-16T11:37:47;1.87;;;0.90;;
3066;SDS011;1544;48.834;9.194;2022-10-16T11:40:27;1.50;;;0.90;;
3066;SDS011;1544;48.834;9.194;2022-10-16T11:43:13;1.20;;;1.10;;
3066;SDS011;1544;48.834;9.194;2022-10-16T11:46:02;1.10;;;0.80;;
3066;SDS011;1544;48.834;9.194;2022-10-16T11:55:24;3.17;;;1.10;;
3066;SDS011;1544;48.834;9.194;2022-10-16T11:58:04;1.03;;;0.93;;
3066;SDS011;1544;48.834;9.194;2022-10-16T12:03:48;1.00;;;1.00;;
3066;SDS011;1544;48.834;9.194;2022-10-16T12:10:10;1.03;;;0.80;;
3066;SDS011;1544;48.834;9.194;2022-10-16T12:13:00;3.23;;;1.03;;
3066;SDS011;1544;48.834;9.194;2022-10-16T12:15:36;1.33;;;1.00;;
3066;SDS011;1544;48.834;9.194;2022-10-16T12:18:31;3.97;;;0.80;;
3066;SDS011;1544;48.834;9.194;2022-10-16T12:21:06;3.50;;;0.87;;
3066;SDS011;1544;48.834;9.194;2022-10-16T12:23:52;1.63;;;1.10;;
3066;SDS011;1544;48.834;9.194;2022-10-16T12:26:34;3.00;;;1.00;;
3066;SDS011;1544;48.834;9.194;2022-10-16T12:32:04;2.30;;;1.10;;
3066;SDS011;1544;48.834;9.194;2022-10-16T12:35:21;1.20;;;1.10;;
3066;SDS011;1544;48.834;9.194;2022-10-16T12:38:07;1.63;;;1.53;;
3066;SDS011;1544;48.834;9.194;2022-10-16T12:41:03;1.07;;;0.93;;
3066;SDS011;1544;48.834;9.194;2022-10-16T12:43:46;1.30;;;1.20;;
3066;SDS011;1544;48.834;9.194;2022-10-16T12:51:46;1.70;;;1.60;;
3066;SDS011;1544;48.834;9.194;2022-10-16T12:54:27;2.00;;;1.40;;
3066;SDS011;1544;48.834;9.194;2022-10-16T13:00:26;1.43;;;1.20;;
3066;SDS011;1544;48.834;9.194;2022-10-16T13:09:30;2.33;;;1.60;;
3066;SDS011;1544;48.834;9.194;2022-10-16T13:21:43;1.80;;;1.43;;
3066;SDS011;1544;48.834;9.194;2022-10-16T13:24:43;2.20;;;1.87;;
3066;SDS011;1544;48.834;9.194;2022-10-16T13:27:40;1.77;;;1.67;;
3066;SDS011;1544;48.834;9.194;2022-10-16T13:30:31;0.90;;;0.90;;
3066;SDS011;1544;48.834;9.194;2022-10-16T13:35:58;1.13;;;1.10;;
3066;SDS011;1544;48.834;9.194;2022-10-16T13:38:34;1.37;;;1.30;;
3066;SDS011;1544;48.834;9.194;2022-10-16T13:41:14;1.60;;;1.50;;
3066;SDS011;1544;48.834;9.194;2022-10-16T13:43:52;1.70;;;1.60;;
3066;SDS011;1544;48.834;9.194;2022-10-16T13:46:30;1.20;;;1.20;;
3066;SDS011;1544;48.834;9.194;2022-10-16T13:49:13;2.20;;;1.10;;
3066;SDS011;1544;48.834;9.194;2022-10-16T13:51:58;1.60;;;1.50;;
3066;SDS011;1544;48.834;9.194;2022-10-16T13:54:33;4.23;;;1.20;;
3066;SDS011;1544;48.834;9.194;2022-10-16T13:57:11;1.23;;;1.23;;
3066;SDS011;1544;48.834;9.194;2022-10-16T14:00:00;1.10;;;1.00;;
3066;SDS011;1544;48.834;9.194;2022-10-16T14:02:37;1.20;;;0.90;;
3066;SDS011;1544;48.834;9.194;2022-10-16T14:05:14;1.40;;;1.30;;
3066;SDS011;1544;48.834;9.194;2022-10-16T14:07:50;3.63;;;1.60;;
3066;SDS011;1544;48.834;9.194;2022-10-16T14:10:29;1.40;;;1.30;;
3066;SDS011;1544;48.834;9.194;2022-10-16T14:13:07;1.77;;;1.23;;
3066;SDS011;1544;48.834;9.194;2022-10-16T14:15:51;2.30;;;1.37;;
3066;SDS011;1544;48.834;9.194;2022-10-16T14:18:28;2.60;;;1.30;;
3066;SDS011;1544;48.834;9.194;2022-10-16T14:21:12;1.50;;;1.40;;
3066;SDS011;1544;48.834;9.194;2022-10-16T14:23:48;1.63;;;1.53;;
3066;SDS011;1544;48.834;9.194;2022-10-16T14:26:25;1.63;;;1.53;;
3066;SDS011;1544;48.834;9.194;2022-10-16T14:29:12;3.10;;;2.23;;
3066;SDS011;1544;48.834;9.194;2022-10-16T14:32:03;1.70;;;1.50;;
3066;SDS011;1544;48.834;9.194;2022-10-16T14:34:39;1.30;;;1.20;;
3066;SDS011;1544;48.834;9.194;2022-10-16T14:40:01;1.30;;;1.20;;
3066;SDS011;1544;48.834;9.194;2022-10-16T14:42:37;1.10;;;1.10;;
3066;SDS011;1544;48.834;9.194;2022-10-16T14:45:18;1.53;;;1.10;;
3066;SDS011;1544;48.834;9.194;2022-10-16T14:48:06;1.40;;;1.30;;
3066;SDS011;1544;48.834;9.194;2022-10-16T14:50:53;1.20;;;1.10;;
3066;SDS011;1544;48.834;9.194;2022-10-16T14:53:28;1.50;;;1.10;;
3066;SDS011;1544;48.834;9.194;2022-10-16T14:56:07;1.53;;;1.20;;
3066;SDS011;1544;48.834;9.194;2022-10-16T14:58:43;1.30;;;1.20;;
3066;SDS011;1544;48.834;9.194;2022-10-16T15:01:19;1.53;;;1.13;;
3066;SDS011;1544;48.834;9.194;2022-10-16T15:03:54;1.30;;;1.20;;
3066;SDS011;1544;48.834;9.194;2022-10-16T15:06:29;1.53;;;1.43;;
3066;SDS011;1544;48.834;9.194;2022-10-16T15:09:04;1.40;;;1.30;;
3066;SDS011;1544;48.834;9.194;2022-10-16T15:11:39;1.40;;;1.30;;
3066;SDS011;1544;48.834;9.194;2022-10-16T15:14:15;1.50;;;1.40;;
3066;SDS011;1544;48.834;9.194;2022-10-16T15:16:50;1.47;;;1.37;;
3066;SDS011;1544;48.834;9.194;2022-10-16T15:19:25;1.73;;;1.63;;
3066;SDS011;1544;48.834;9.194;2022-10-16T15:22:00;1.63;;;1.53;;
3066;SDS011;1544;48.834;9.194;2022-10-16T15:24:35;1.60;;;1.50;;
3066;SDS011;1544;48.834;9.194;2022-10-16T15:27:10;3.00;;;1.70;;
3066;SDS011;1544;48.834;9.194;2022-10-16T15:29:45;2.10;;;1.80;;
3066;SDS011;1544;48.834;9.194;2022-10-16T15:32:20;2.10;;;2.00;;
3066;SDS011;1544;48.834;9.194;2022-10-16T15:34:55;5.10;;;1.50;;
3066;SDS011;1544;48.834;9.194;2022-10-16T15:37:30;2.33;;;2.23;;
3066;SDS011;1544;48.834;9.194;2022-10-16T15:40:05;1.53;;;1.40;;
3066;SDS011;1544;48.834;9.194;2022-10-16T15:42:41;1.57;;;1.47;;
3066;SDS011;1544;48.834;9.194;2022-10-16T15:45:16;2.17;;;1.90;;
3066;SDS011;1544;48.834;9.194;2022-10-16T15:47:53;2.53;;;2.33;;
3066;SDS011;1544;48.834;9.194;2022-10-16T15:50:30;2.17;;;1.97;;
3066;SDS011;1544;48.834;9.194;2022-10-16T15:53:06;2.10;;;2.00;;
3066;SDS011;1544;48.834;9.194;2022-10-16T15:55:41;2.13;;;2.03;;
3066;SDS011;1544;48.834;9.194;2022-10-16T15:58:16;3.10;;;1.70;;
3066;SDS011;1544;48.834;9.194;2022-10-16T16:00:58;2.30;;;2.10;;
3066;SDS011;1544;48.834;9.194;2022-10-16T16:03:37;3.47;;;1.97;;
3066;SDS011;1544;48.834;9.194;2022-10-16T16:06:15;6.63;;;2.60;;
3066;SDS011;1544;48.834;9.194;2022-10-16T16:08:51;3.03;;;2.73;;
3066;SDS011;1544;48.834;9.194;2022-10-16T16:11:26;4.33;;;2.30;;
3066;SDS011;1544;48.834;9.194;2022-10-16T16:14:01;2.33;;;2.13;;
3066;SDS011;1544;48.834;9.194;2022-10-16T16:16:36;3.43;;;3.13;;
3066;SDS011;1544;48.834;9.194;2022-10-16T16:19:12;3.67;;;3.37;;
3066;SDS011;1544;48.834;9.194;2022-10-16T16:21:47;4.10;;;3.77;;
3066;SDS011;1544;48.834;9.194;2022-10-16T16:24:23;4.10;;;3.73;;
3066;SDS011;1544;48.834;9.194;2022-10-16T16:26:58;2.90;;;2.60;;
3066;SDS011;1544;48.834;9.194;2022-10-16T16:29:33;4.20;;;2.70;;
3066;SDS011;1544;48.834;9.194;2022-10-16T16:32:08;4.40;;;1.90;;
3066;SDS011;1544;48.834;9.194;2022-10-16T16:34:44;3.43;;;3.20;;
3066;SDS011;1544;48.834;9.194;2022-10-16T16:37:18;2.73;;;2.53;;
3066;SDS011;1544;48.834;9.194;2022-10-16T16:39:53;3.60;;;3.30;;
3066;SDS011;1544;48.834;9.194;2022-10-16T16:42:29;4.00;;;3.77;;
3066;SDS011;1544;48.834;9.194;2022-10-16T16:45:05;4.03;;;3.80;;
3066;SDS011;1544;48.834;9.194;2022-10-16T16:47:41;4.70;;;3.60;;
3066;SDS011;1544;48.834;9.194;2022-10-16T16:50:16;4.17;;;3.87;;
3066;SDS011;1544;48.834;9.194;2022-10-16T16:52:51;3.50;;;3.30;;
3066;SDS011;1544;48.834;9.194;2022-10-16T16:55:26;4.17;;;3.87;;
3066;SDS011;1544;48.834;9.194;2022-10-16T16:58:01;3.80;;;3.60;;
3066;SDS011;1544;48.834;9.194;2022-10-16T17:00:44;3.13;;;2.93;;
3066;SDS011;1544;48.834;9.194;2022-10-16T17:03:31;5.03;;;4.63;;
3066;SDS011;1544;48.834;9.194;2022-10-16T17:06:09;4.37;;;3.97;;
3066;SDS011;1544;48.834;9.194;2022-10-16T17:08:45;3.60;;;3.13;;
3066;SDS011;1544;48.834;9.194;2022-10-16T17:11:21;2.83;;;2.63;;
3066;SDS011;1544;48.834;9.194;2022-10-16T17:13:59;3.40;;;3.20;;
3066;SDS011;1544;48.834;9.194;2022-10-16T17:16:35;4.03;;;3.73;;
3066;SDS011;1544;48.834;9.194;2022-10-16T17:19:13;7.60;;;6.30;;
3066;SDS011;1544;48.834;9.194;2022-10-16T17:21:53;5.43;;;4.87;;
3066;SDS011;1544;48.834;9.194;2022-10-16T17:24:28;3.87;;;3.57;;
3066;SDS011;1544;48.834;9.194;2022-10-16T17:27:03;3.80;;;3.50;;
3066;SDS011;1544;48.834;9.194;2022-10-16T17:29:38;3.57;;;3.37;;
3066;SDS011;1544;48.834;9.194;2022-10-16T17:32:13;4.50;;;3.67;;
3066;SDS011;1544;48.834;9.194;2022-10-16T17:34:48;4.27;;;3.87;;
3066;SDS011;1544;48.834;9.194;2022-10-16T17:37:23;5.00;;;4.40;;
3066;SDS011;1544;48.834;9.194;2022-10-16T17:39:58;5.30;;;4.23;;
3066;SDS011;1544;48.834;9.194;2022-10-16T17:42:33;4.60;;;4.30;;
3066;SDS011;1544;48.834;9.194;2022-10-16T17:45:08;5.70;;;5.20;;
3066;SDS011;1544;48.834;9.194;2022-10-16T17:47:44;4.00;;;3.73;;
3066;SDS011;1544;48.834;9.194;2022-10-16T17:50:19;5.30;;;4.80;;
3066;SDS011;1544;48.834;9.194;2022-10-16T17:52:53;5.40;;;4.93;;
3066;SDS011;1544;48.834;9.194;2022-10-16T17:55:28;5.23;;;4.73;;
3066;SDS011;1544;48.834;9.194;2022-10-16T17:58:03;10.73;;;5.10;;
3066;SDS011;1544;48.834;9.194;2022-10-16T18:00:38;6.03;;;5.53;;